Time;durP1;ratioP1;P1;durP2;ratioP2;P2;SDS_P1;SDS_P2;PMS_P1;PMS_P2;Temp;Humidity;BMP_temperature;BMP_pressure;BME280_temperature;BME280_humidity;BME280_pressure;Samples;Min_cycle;Max_cycle;Signal;HPM_P1;HPM_P2
2022/09/26 00:01:48;;;;;;;;;;;;;;;;;;4399093;32;70115;-60
2022/09/26 00:04:35;;;;;;;;;;;;;;;;;;4385186;32;66685;-61
2022/09/26 00:07:21;;;;;;;;;;;;;;;;;;4376717;32;67179;-61
2022/09/26 00:10:08;;;;;;;;;;;;;;;;;;4363470;32;59381;-60
2022/09/26 00:12:55;;;;;;;;;;;;;;;;;;4387074;32;69313;-60
2022/09/26 00:15:41;;;;;;;;;;;;;;;;;;4373717;32;69834;-62
2022/09/26 00:18:27;;;;;;;;;;;;;;;;;;4384639;32;68077;-61
2022/09/26 00:21:14;;;;;;;;;;;;;;;;;;4376383;32;71598;-61
2022/09/26 00:24:00;;;;;;;;;;;;;;;;;;4373761;32;65885;-61
2022/09/26 00:26:47;;;;;;;;;;;;;;;;;;4376718;32;66760;-60
2022/09/26 00:29:33;;;;;;;;;;;;;;;;;;4376374;32;67011;-61
2022/09/26 00:32:20;;;;;;;;;;;;;;;;;;4398845;32;71092;-61
2022/09/26 00:35:06;;;;;;;;;;;;;;;;;;4398994;32;66424;-60
2022/09/26 00:37:53;;;;;;;;;;;;;;;;;;4399237;32;67416;-61
2022/09/26 00:40:39;;;;;;;;;;;;;;;;;;4387345;32;58863;-60
2022/09/26 00:43:36;;;;;;;;;;;;;;;;;;4386945;32;70231;-60
2022/09/26 00:46:31;;;;;;;;;;;;;;;;;;4365536;32;69104;-61
2022/09/26 00:49:20;;;;;;;;;;;;;;;;;;4373589;32;68305;-60
2022/09/26 00:52:15;;;;;;;;;;;;;;;;;;4386984;32;71618;-61
2022/09/26 00:55:02;;;;;;;;;;;;;;;;;;4376211;32;70058;-60
2022/09/26 00:57:52;;;;;;;;;;;;;;;;;;4352447;32;69102;-62
2022/09/26 01:00:39;;;;;;;;;;;;;;;;;;4376488;32;67431;-61
2022/09/26 01:03:26;;;;;;;;;;;;;;;;;;4376116;32;71774;-61
2022/09/26 01:06:14;;;;;;;;;;;;;;;;;;4373354;32;66785;-61
2022/09/26 01:09:03;;;;;;;;;;;;;;;;;;4365547;32;67589;-61
2022/09/26 01:11:49;;;;;;;;;;;;;;;;;;4376118;32;58804;-61
2022/09/26 01:14:38;;;;;;;;;;;;;;;;;;4376069;32;70219;-61
2022/09/26 01:17:25;;;;;;;;;;;;;;;;;;4386783;32;68460;-60
2022/09/26 01:20:14;;;;;;;;;;;;;;;;;;4375982;32;67236;-61
2022/09/26 01:23:19;;;;;;;;;;;;;;;;;;4374150;32;59283;-61
2022/09/26 01:26:20;;;;;;;;;;;;;;;;;;4399422;32;70138;-60
2022/09/26 01:29:07;;;;;;;;;;;;;;;;;;4386434;32;68940;-60
2022/09/26 01:35:37;;;;;;;;;;;;;;;;;;4377807;32;71752;-61
2022/09/26 01:38:26;;;;;;;;;;;;;;;;;;4398534;32;65321;-61
2022/09/26 01:41:25;;;;;;;;;;;;;;;;;;4376159;32;67615;-60
2022/09/26 01:44:17;;;;;;;;;;;;;;;;;;4376071;32;58805;-60
2022/09/26 01:47:14;;;;;;;;;;;;;;;;;;4398264;32;71106;-60
2022/09/26 01:50:02;;;;;;;;;;;;;;;;;;4398284;32;65792;-61
2022/09/26 01:52:54;;;;;;;;;;;;;;;;;;4375801;32;66998;-60
2022/09/26 01:55:42;;;;;;;;;;;;;;;;;;4351953;32;60387;-62
2022/09/26 01:58:48;;;;;;;;;;;;;;;;;;4367122;32;70331;-60
2022/09/26 02:01:36;;;;;;;;;;;;;;;;;;4388732;32;69441;-60
2022/09/26 02:04:25;;;;;;;;;;;;;;;;;;4378209;32;66803;-60
2022/09/26 02:07:12;;;;;;;;;;;;;;;;;;4378495;32;71587;-61
2022/09/26 02:10:01;;;;;;;;;;;;;;;;;;4354267;32;68015;-61
2022/09/26 02:12:49;;;;;;;;;;;;;;;;;;4377907;32;69309;-61
2022/09/26 02:15:36;;;;;;;;;;;;;;;;;;4400767;32;67938;-61
2022/09/26 02:18:23;;;;;;;;;;;;;;;;;;4388510;32;72075;-61
2022/09/26 02:21:11;;;;;;;;;;;;;;;;;;4388622;32;66096;-61
2022/09/26 02:23:58;;;;;;;;;;;;;;;;;;4364674;32;68572;-60
2022/09/26 02:26:44;;;;;;;;;;;;;;;;;;4388919;32;58853;-61
2022/09/26 02:29:32;;;;;;;;;;;;;;;;;;4377865;32;70476;-60
2022/09/26 02:32:22;;;;;;;;;;;;;;;;;;4378162;32;69225;-61
2022/09/26 02:38:14;;;;;;;;;;;;;;;;;;4379884;32;59598;-61
2022/09/26 02:41:25;;;;;;;;;;;;;;;;;;4377743;32;69041;-61
2022/09/26 02:44:12;;;;;;;;;;;;;;;;;;4400003;32;68713;-60
2022/09/26 02:47:11;;;;;;;;;;;;;;;;;;4388370;32;67746;-61
2022/09/26 02:50:16;;;;;;;;;;;;;;;;;;4385607;32;71663;-61
2022/09/26 02:53:09;;;;;;;;;;;;;;;;;;4388200;32;65297;-61
2022/09/26 02:56:25;;;;;;;;;;;;;;;;;;4377669;32;68191;-61
2022/09/26 02:59:15;;;;;;;;;;;;;;;;;;4379241;32;60735;-60
2022/09/26 03:02:13;;;;;;;;;;;;;;;;;;4366979;32;71676;-61
2022/09/26 03:05:00;;;;;;;;;;;;;;;;;;4388254;32;65290;-60
2022/09/26 03:07:49;;;;;;;;;;;;;;;;;;4388197;32;67995;-61
2022/09/26 03:10:35;;;;;;;;;;;;;;;;;;4377703;32;60080;-61
2022/09/26 03:13:22;;;;;;;;;;;;;;;;;;4363862;32;69743;-60
2022/09/26 03:16:08;;;;;;;;;;;;;;;;;;4377517;32;69394;-60
2022/09/26 03:19:00;;;;;;;;;;;;;;;;;;4387924;32;66789;-60
2022/09/26 03:21:46;;;;;;;;;;;;;;;;;;4373925;32;72497;-62
2022/09/26 03:24:34;;;;;;;;;;;;;;;;;;4400041;32;65371;-61
2022/09/26 03:27:21;;;;;;;;;;;;;;;;;;4387716;32;68593;-60
2022/09/26 03:30:08;;;;;;;;;;;;;;;;;;4377042;32;67956;-61
2022/09/26 03:32:56;;;;;;;;;;;;;;;;;;4374353;32;71756;-61
2022/09/26 03:35:44;;;;;;;;;;;;;;;;;;4401670;32;65964;-61
2022/09/26 03:38:31;;;;;;;;;;;;;;;;;;4364322;32;67776;-61
2022/09/26 03:41:18;;;;;;;;;;;;;;;;;;4399965;32;59551;-60
2022/09/26 03:44:08;;;;;;;;;;;;;;;;;;4387458;32;70092;-60
2022/09/26 03:46:57;;;;;;;;;;;;;;;;;;4387391;32;68369;-61
2022/09/26 03:49:43;;;;;;;;;;;;;;;;;;4387601;32;67726;-60
2022/09/26 03:52:30;;;;;;;;;;;;;;;;;;4387831;32;59712;-61
2022/09/26 03:55:16;;;;;;;;;;;;;;;;;;4376670;32;68992;-61
2022/09/26 03:58:04;;;;;;;;;;;;;;;;;;4387278;32;68655;-60
2022/09/26 04:00:52;;;;;;;;;;;;;;;;;;4376923;32;67420;-60
2022/09/26 04:03:39;;;;;;;;;;;;;;;;;;4376825;32;71139;-61
2022/09/26 04:06:26;;;;;;;;;;;;;;;;;;4366103;32;65223;-61
2022/09/26 04:09:13;;;;;;;;;;;;;;;;;;4387255;32;67325;-60
2022/09/26 04:11:59;;;;;;;;;;;;;;;;;;4399591;32;58852;-61
2022/09/26 04:14:46;;;;;;;;;;;;;;;;;;4387319;32;69574;-61
2022/09/26 04:17:32;;;;;;;;;;;;;;;;;;4387265;32;66433;-62
2022/09/26 04:20:21;;;;;;;;;;;;;;;;;;4376485;32;67974;-60
2022/09/26 04:23:08;;;;;;;;;;;;;;;;;;4353728;32;60250;-60
2022/09/26 04:25:55;;;;;;;;;;;;;;;;;;4376657;32;69695;-61
2022/09/26 04:28:41;;;;;;;;;;;;;;;;;;4399301;32;69739;-61
2022/09/26 04:31:27;;;;;;;;;;;;;;;;;;4365980;32;68104;-60
2022/09/26 04:34:15;;;;;;;;;;;;;;;;;;4386926;32;71794;-61
2022/09/26 04:37:01;;;;;;;;;;;;;;;;;;4376654;32;65055;-60
2022/09/26 04:39:47;;;;;;;;;;;;;;;;;;4386842;32;69251;-61
2022/09/26 04:42:35;;;;;;;;;;;;;;;;;;4387018;32;67044;-61
2022/09/26 04:45:22;;;;;;;;;;;;;;;;;;4365748;32;71935;-61
2022/09/26 04:48:09;;;;;;;;;;;;;;;;;;4376292;32;64986;-61
2022/09/26 04:50:57;;;;;;;;;;;;;;;;;;4376607;32;68072;-61
2022/09/26 04:53:44;;;;;;;;;;;;;;;;;;4376521;32;59556;-60
2022/09/26 04:56:31;;;;;;;;;;;;;;;;;;4376069;32;69846;-60
2022/09/26 04:59:17;;;;;;;;;;;;;;;;;;4376088;32;69339;-60
2022/09/26 05:02:07;;;;;;;;;;;;;;;;;;4376077;32;67761;-61
2022/09/26 05:04:58;;;;;;;;;;;;;;;;;;4387145;32;60122;-61
2022/09/26 05:07:45;;;;;;;;;;;;;;;;;;4375831;32;69084;-60
2022/09/26 05:10:32;;;;;;;;;;;;;;;;;;4385967;32;68859;-60
2022/09/26 05:13:20;;;;;;;;;;;;;;;;;;4386476;32;67156;-61
2022/09/26 05:16:08;;;;;;;;;;;;;;;;;;4375652;32;71022;-62
2022/09/26 05:18:55;;;;;;;;;;;;;;;;;;4398440;32;66047;-60
2022/09/26 05:21:42;;;;;;;;;;;;;;;;;;4386533;32;67053;-61
2022/09/26 05:27:33;;;;;;;;;;;;;;;;;;4398118;32;69981;-60
2022/09/26 05:30:20;;;;;;;;;;;;;;;;;;4386373;32;65004;-60
2022/09/26 05:33:08;;;;;;;;;;;;;;;;;;4399985;32;67295;-61
2022/09/26 05:35:54;;;;;;;;;;;;;;;;;;4389250;32;58960;-59
2022/09/26 05:38:40;;;;;;;;;;;;;;;;;;4389123;32;69446;-60
2022/09/26 05:41:31;;;;;;;;;;;;;;;;;;4385998;32;68905;-61
2022/09/26 05:44:18;;;;;;;;;;;;;;;;;;4365524;32;67386;-59
2022/09/26 05:47:06;;;;;;;;;;;;;;;;;;4389515;32;71744;-60
2022/09/26 05:49:53;;;;;;;;;;;;;;;;;;4378479;32;67290;-60
2022/09/26 05:52:40;;;;;;;;;;;;;;;;;;4389260;32;68434;-60
2022/09/26 05:55:28;;;;;;;;;;;;;;;;;;4388793;32;68098;-59
2022/09/26 05:58:17;;;;;;;;;;;;;;;;;;4388628;32;71924;-60
2022/09/26 06:01:11;;;;;;;;;;;;;;;;;;4378828;32;66186;-61
2022/09/26 06:03:58;;;;;;;;;;;;;;;;;;4378135;32;68237;-59
2022/09/26 06:06:44;;;;;;;;;;;;;;;;;;4375656;32;58609;-60
2022/09/26 06:09:31;;;;;;;;;;;;;;;;;;4388503;32;69127;-59
2022/09/26 06:12:20;;;;;;;;;;;;;;;;;;4388435;32;69721;-59
2022/09/26 06:15:08;;;;;;;;;;;;;;;;;;4400525;32;67041;-58
2022/09/26 06:18:03;;;;;;;;;;;;;;;;;;4388632;32;71594;-58
2022/09/26 06:20:50;;;;;;;;;;;;;;;;;;4388523;32;69564;-59
2022/09/26 06:23:36;;;;;;;;;;;;;;;;;;4388656;32;69811;-59
2022/09/26 06:26:24;;;;;;;;;;;;;;;;;;4388630;32;67766;-59
2022/09/26 06:29:10;;;;;;;;;;;;;;;;;;4364508;32;71984;-60
2022/09/26 06:31:57;;;;;;;;;;;;;;;;;;4388706;32;65978;-61
2022/09/26 06:34:45;;;;;;;;;;;;;;;;;;4387938;32;67663;-60
2022/09/26 06:37:32;;;;;;;;;;;;;;;;;;4400243;32;59709;-61
2022/09/26 06:40:18;;;;;;;;;;;;;;;;;;4377383;32;69429;-61
2022/09/26 06:43:05;;;;;;;;;;;;;;;;;;4399860;32;69354;-61
2022/09/26 06:45:52;;;;;;;;;;;;;;;;;;4374890;32;68552;-60
2022/09/26 06:48:39;;;;;;;;;;;;;;;;;;4377837;32;59094;-59
2022/09/26 06:51:25;;;;;;;;;;;;;;;;;;4374632;32;70595;-59
2022/09/26 06:54:12;;;;;;;;;;;;;;;;;;4374781;32;66794;-60
2022/09/26 06:56:58;;;;;;;;;;;;;;;;;;4388278;32;67034;-59
2022/09/26 06:59:44;;;;;;;;;;;;;;;;;;4387980;32;72126;-60
2022/09/26 07:02:36;;;;;;;;;;;;;;;;;;4387942;32;65914;-59
2022/09/26 07:05:23;;;;;;;;;;;;;;;;;;4388444;32;68087;-59
2022/09/26 07:08:09;;;;;;;;;;;;;;;;;;4377367;32;66886;-58
2022/09/26 07:11:00;;;;;;;;;;;;;;;;;;4376755;32;71154;-59
2022/09/26 07:13:46;;;;;;;;;;;;;;;;;;4364473;32;65551;-59
2022/09/26 07:16:30;;;;;;;;;;;;;;;;;;3847711;37;43757;-60
2022/09/26 07:19:17;;;;;;;;;;;;;;;;;;4386121;32;59466;-59
2022/09/26 07:22:06;;;;;;;;;;;;;;;;;;4375169;32;68974;-59
2022/09/26 07:24:53;;;;;;;;;;;;;;;;;;4385845;32;69087;-61
2022/09/26 07:27:40;;;;;;;;;;;;;;;;;;4375514;32;67691;-59
2022/09/26 07:30:27;;;;;;;;;;;;;;;;;;4399234;32;71541;-60
2022/09/26 07:33:15;;;;;;;;;;;;;;;;;;4388644;32;66138;-58
2022/09/26 07:36:02;;;;;;;;;;;;;;;;;;4396426;32;66908;-59
2022/09/26 07:38:48;;;;;;;;;;;;;;;;;;4385516;32;60073;-58
2022/09/26 07:41:35;;;;;;;;;;;;;;;;;;4398999;32;71852;-59
2022/09/26 07:44:21;;;;;;;;;;;;;;;;;;4364696;32;66246;-59
2022/09/26 07:50:15;;;;;;;;;;;;;;;;;;4387860;32;60256;-58
2022/09/26 07:53:02;;;;;;;;;;;;;;;;;;4375304;32;71488;-59
2022/09/26 07:56:10;;;;;;;;;;;;;;;;;;4365205;32;70539;-58
2022/09/26 07:58:56;;;;;;;;;;;;;;;;;;4395745;32;67796;-58
2022/09/26 08:01:45;;;;;;;;;;;;;;;;;;4391915;32;72453;-58
2022/09/26 08:04:34;;;;;;;;;;;;;;;;;;4399892;32;65277;-60
2022/09/26 08:07:21;;;;;;;;;;;;;;;;;;4374879;32;69961;-60
2022/09/26 08:10:10;;;;;;;;;;;;;;;;;;4383820;32;67085;-60
2022/09/26 08:13:00;;;;;;;;;;;;;;;;;;4383554;32;71977;-60
2022/09/26 08:15:47;;;;;;;;;;;;;;;;;;4393713;32;66067;-60
2022/09/26 08:18:34;;;;;;;;;;;;;;;;;;4372585;32;68292;-61
2022/09/26 08:21:21;;;;;;;;;;;;;;;;;;4395450;32;59215;-61
2022/09/26 08:24:07;;;;;;;;;;;;;;;;;;4373139;32;69674;-62
2022/09/26 08:26:55;;;;;;;;;;;;;;;;;;4387693;32;69604;-59
2022/09/26 08:29:41;;;;;;;;;;;;;;;;;;4383843;32;67022;-61
2022/09/26 08:32:30;;;;;;;;;;;;;;;;;;4384155;32;59485;-60
2022/09/26 08:35:17;;;;;;;;;;;;;;;;;;4362541;32;69807;-60
2022/09/26 08:38:08;;;;;;;;;;;;;;;;;;4383718;32;69459;-60
2022/09/26 08:41:20;;;;;;;;;;;;;;;;;;4362396;32;65683;-60
2022/09/26 08:44:27;;;;;;;;;;;;;;;;;;4372203;32;72118;-59
2022/09/26 08:47:16;;;;;;;;;;;;;;;;;;4385058;32;65105;-60
2022/09/26 08:50:13;;;;;;;;;;;;;;;;;;4383035;32;68713;-61
2022/09/26 08:53:09;;;;;;;;;;;;;;;;;;4351698;32;59816;-61
2022/09/26 08:55:56;;;;;;;;;;;;;;;;;;4371876;32;70598;-62
2022/09/26 08:58:43;;;;;;;;;;;;;;;;;;4372996;32;66168;-61
2022/09/26 09:01:30;;;;;;;;;;;;;;;;;;4372281;32;68229;-61
2022/09/26 09:04:20;;;;;;;;;;;;;;;;;;4352041;32;59460;-61
2022/09/26 09:07:11;;;;;;;;;;;;;;;;;;4372751;32;69344;-59
2022/09/26 09:10:09;;;;;;;;;;;;;;;;;;4372599;32;68616;-59
2022/09/26 09:13:15;;;;;;;;;;;;;;;;;;4351738;32;66213;-58
2022/09/26 09:16:11;;;;;;;;;;;;;;;;;;4382576;32;71281;-59
2022/09/26 09:19:19;;;;;;;;;;;;;;;;;;4372861;32;65341;-61
2022/09/26 09:22:25;;;;;;;;;;;;;;;;;;4383399;32;67672;-59
2022/09/26 09:25:20;;;;;;;;;;;;;;;;;;4371814;32;67110;-59
2022/09/26 09:28:25;;;;;;;;;;;;;;;;;;4372371;32;71965;-61
2022/09/26 09:31:12;;;;;;;;;;;;;;;;;;4384302;32;66229;-60
2022/09/26 09:34:00;;;;;;;;;;;;;;;;;;4361927;32;67830;-60
2022/09/26 09:36:47;;;;;;;;;;;;;;;;;;4383129;32;58995;-59
2022/09/26 09:39:36;;;;;;;;;;;;;;;;;;4371832;32;69406;-60
2022/09/26 09:42:23;;;;;;;;;;;;;;;;;;4361623;32;68309;-60
2022/09/26 09:45:27;;;;;;;;;;;;;;;;;;4382818;32;67123;-59
2022/09/26 09:48:14;;;;;;;;;;;;;;;;;;4362032;32;58548;-60
2022/09/26 09:51:30;;;;;;;;;;;;;;;;;;4361616;32;69695;-59
2022/09/26 09:54:35;;;;;;;;;;;;;;;;;;4366622;32;70119;-59
2022/09/26 09:57:28;;;;;;;;;;;;;;;;;;4382673;32;66952;-60
2022/09/26 10:00:16;;;;;;;;;;;;;;;;;;4372037;32;71780;-61
2022/09/26 10:03:25;;;;;;;;;;;;;;;;;;4362394;32;66078;-64
2022/09/26 10:06:12;;;;;;;;;;;;;;;;;;4371482;32;67419;-62
2022/09/26 10:09:04;;;;;;;;;;;;;;;;;;4382972;32;59473;-63
2022/09/26 10:11:52;;;;;;;;;;;;;;;;;;4375691;32;70332;-62
2022/09/26 10:14:51;;;;;;;;;;;;;;;;;;4369219;32;66338;-64
2022/09/26 10:17:43;;;;;;;;;;;;;;;;;;4351655;32;67275;-63
2022/09/26 10:20:52;;;;;;;;;;;;;;;;;;4382706;32;60016;-63
2022/09/26 10:23:39;;;;;;;;;;;;;;;;;;4361613;32;69424;-62
2022/09/26 10:26:33;;;;;;;;;;;;;;;;;;4382524;32;69338;-62
2022/09/26 10:29:23;;;;;;;;;;;;;;;;;;4382725;32;67549;-62
2022/09/26 10:32:10;;;;;;;;;;;;;;;;;;4371659;32;71652;-62
2022/09/26 10:35:17;;;;;;;;;;;;;;;;;;4361654;32;65272;-65
2022/09/26 10:38:16;;;;;;;;;;;;;;;;;;4367295;32;67333;-68
2022/09/26 10:41:03;;;;;;;;;;;;;;;;;;4356748;32;68213;-67
2022/09/26 10:43:52;;;;;;;;;;;;;;;;;;4345317;32;71596;-66
2022/09/26 10:46:40;;;;;;;;;;;;;;;;;;4367252;32;65082;-68
2022/09/26 10:49:30;;;;;;;;;;;;;;;;;;4346396;32;67954;-75
2022/09/26 10:52:19;;;;;;;;;;;;;;;;;;4355446;32;60131;-71
2022/09/26 10:55:08;;;;;;;;;;;;;;;;;;4345390;32;71298;-70
2022/09/26 10:57:55;;;;;;;;;;;;;;;;;;4345191;32;69062;-69
2022/09/26 11:00:42;;;;;;;;;;;;;;;;;;4366867;32;66836;-70
2022/09/26 11:03:34;;;;;;;;;;;;;;;;;;4346170;32;72859;-69
2022/09/26 11:06:32;;;;;;;;;;;;;;;;;;4345578;32;70713;-67
2022/09/26 11:09:20;;;;;;;;;;;;;;;;;;4356303;32;68678;-66
2022/09/26 11:12:30;;;;;;;;;;;;;;;;;;4346200;32;67089;-67
2022/09/26 11:15:18;;;;;;;;;;;;;;;;;;4344930;32;72513;-67
2022/09/26 11:18:05;;;;;;;;;;;;;;;;;;4355569;32;65795;-66
2022/09/26 11:20:54;;;;;;;;;;;;;;;;;;4355283;32;68099;-66
2022/09/26 11:23:46;;;;;;;;;;;;;;;;;;4355609;32;59766;-67
2022/09/26 11:26:38;;;;;;;;;;;;;;;;;;4355442;32;70751;-66
2022/09/26 11:29:33;;;;;;;;;;;;;;;;;;4356094;32;69678;-67
2022/09/26 11:32:29;;;;;;;;;;;;;;;;;;4366583;32;66769;-66
2022/09/26 11:35:32;;;;;;;;;;;;;;;;;;4355899;32;57385;-66
2022/09/26 11:38:42;;;;;;;;;;;;;;;;;;4367839;32;70378;-66
2022/09/26 11:41:37;;;;;;;;;;;;;;;;;;4365921;32;69481;-66
2022/09/26 11:44:31;;;;;;;;;;;;;;;;;;4366555;32;67075;-65
2022/09/26 11:47:35;;;;;;;;;;;;;;;;;;4355659;32;72511;-66
2022/09/26 11:50:38;;;;;;;;;;;;;;;;;;4355710;32;67344;-66
2022/09/26 11:53:46;;;;;;;;;;;;;;;;;;4366670;32;67561;-66
2022/09/26 11:56:44;;;;;;;;;;;;;;;;;;4365938;32;59895;-66
2022/09/26 11:59:46;;;;;;;;;;;;;;;;;;4367839;32;71709;-66
2022/09/26 12:02:32;;;;;;;;;;;;;;;;;;4368130;32;66962;-67
2022/09/26 12:05:23;;;;;;;;;;;;;;;;;;4369301;32;68422;-66
2022/09/26 12:08:20;;;;;;;;;;;;;;;;;;4359564;32;57704;-65
2022/09/26 12:11:18;;;;;;;;;;;;;;;;;;4362259;32;69806;-66
2022/09/26 12:14:10;;;;;;;;;;;;;;;;;;4357388;32;70351;-68
2022/09/26 12:17:16;;;;;;;;;;;;;;;;;;4357192;32;68553;-67
2022/09/26 12:20:14;;;;;;;;;;;;;;;;;;4358356;32;71062;-66
2022/09/26 12:23:01;;;;;;;;;;;;;;;;;;4357647;32;67446;-67
2022/09/26 12:25:47;;;;;;;;;;;;;;;;;;4358607;32;69474;-68
2022/09/26 12:28:42;;;;;;;;;;;;;;;;;;4368832;32;66807;-67
2022/09/26 12:31:29;;;;;;;;;;;;;;;;;;4368508;32;71125;-67
2022/09/26 12:34:27;;;;;;;;;;;;;;;;;;4368772;32;65359;-67
2022/09/26 12:37:14;;;;;;;;;;;;;;;;;;4357901;32;68050;-68
2022/09/26 12:40:09;;;;;;;;;;;;;;;;;;4369836;32;60209;-67
2022/09/26 12:43:15;;;;;;;;;;;;;;;;;;4357394;32;69991;-67
2022/09/26 12:46:20;;;;;;;;;;;;;;;;;;4367868;32;69806;-67
2022/09/26 12:49:06;;;;;;;;;;;;;;;;;;4368608;32;67332;-67
2022/09/26 12:52:19;;;;;;;;;;;;;;;;;;4368617;32;58763;-67
2022/09/26 12:55:18;;;;;;;;;;;;;;;;;;4368338;32;69385;-67
2022/09/26 12:58:04;;;;;;;;;;;;;;;;;;4356993;32;66895;-67
2022/09/26 13:00:53;;;;;;;;;;;;;;;;;;4346860;32;68421;-67
2022/09/26 13:03:45;;;;;;;;;;;;;;;;;;4368122;32;72017;-67
2022/09/26 13:06:40;;;;;;;;;;;;;;;;;;4368418;32;64734;-67
2022/09/26 13:09:45;;;;;;;;;;;;;;;;;;4346846;32;68654;-67
2022/09/26 13:12:41;;;;;;;;;;;;;;;;;;4368541;32;58763;-67
2022/09/26 13:15:31;;;;;;;;;;;;;;;;;;4367689;32;71887;-68
2022/09/26 13:18:19;;;;;;;;;;;;;;;;;;4347024;32;67272;-66
2022/09/26 13:21:06;;;;;;;;;;;;;;;;;;4369449;32;67284;-66
2022/09/26 13:23:56;;;;;;;;;;;;;;;;;;4346695;32;59439;-67
2022/09/26 13:26:44;;;;;;;;;;;;;;;;;;4347435;32;69471;-66
2022/09/26 13:29:32;;;;;;;;;;;;;;;;;;4368014;32;68472;-67
2022/09/26 13:32:26;;;;;;;;;;;;;;;;;;4357469;32;67780;-66
2022/09/26 13:35:34;;;;;;;;;;;;;;;;;;4357521;32;70937;-66
2022/09/26 13:38:31;;;;;;;;;;;;;;;;;;4369304;32;65130;-66
2022/09/26 13:41:29;;;;;;;;;;;;;;;;;;4367716;32;69149;-66
2022/09/26 13:44:27;;;;;;;;;;;;;;;;;;4369937;32;67967;-67
2022/09/26 13:47:18;;;;;;;;;;;;;;;;;;4357863;32;72184;-67
2022/09/26 13:50:23;;;;;;;;;;;;;;;;;;4358035;32;65293;-67
2022/09/26 13:53:09;;;;;;;;;;;;;;;;;;4368355;32;68254;-67
2022/09/26 13:56:15;;;;;;;;;;;;;;;;;;4346977;32;60158;-67
2022/09/26 13:59:03;;;;;;;;;;;;;;;;;;4356899;32;70661;-66
2022/09/26 14:02:08;;;;;;;;;;;;;;;;;;4347541;32;69549;-67
2022/09/26 14:04:57;;;;;;;;;;;;;;;;;;4357437;32;67069;-67
2022/09/26 14:11:03;;;;;;;;;;;;;;;;;;4348039;32;69776;-66
2022/09/26 14:14:09;;;;;;;;;;;;;;;;;;4367777;32;69796;-66
2022/09/26 14:16:57;;;;;;;;;;;;;;;;;;4367708;32;67567;-66
2022/09/26 14:19:47;;;;;;;;;;;;;;;;;;4367376;32;71947;-67
2022/09/26 14:22:36;;;;;;;;;;;;;;;;;;4358516;32;66706;-67
2022/09/26 14:25:54;;;;;;;;;;;;;;;;;;4346284;32;67559;-68
2022/09/26 14:28:46;;;;;;;;;;;;;;;;;;4342967;32;60120;-66
2022/09/26 14:31:35;;;;;;;;;;;;;;;;;;4346598;32;70768;-67
2022/09/26 14:34:22;;;;;;;;;;;;;;;;;;4356877;32;65947;-71
2022/09/26 14:37:21;;;;;;;;;;;;;;;;;;4346408;32;69305;-66
2022/09/26 14:40:23;;;;;;;;;;;;;;;;;;4367391;32;61241;-67
2022/09/26 14:43:13;;;;;;;;;;;;;;;;;;4367752;32;69961;-66
2022/09/26 14:46:01;;;;;;;;;;;;;;;;;;4346743;32;69590;-67
2022/09/26 14:48:47;;;;;;;;;;;;;;;;;;4346547;32;68132;-66
2022/09/26 14:51:38;;;;;;;;;;;;;;;;;;4357013;32;71827;-66
